Time;durP1;ratioP1;P1;durP2;ratioP2;P2;SDS_P1;SDS_P2;PMS_P1;PMS_P2;Temp;Humidity;BMP_temperature;BMP_pressure;BME280_temperature;BME280_humidity;BME280_pressure;Samples;Min_cycle;Max_cycle;Signal;HPM_P1;HPM_P2
2023/09/13 00:00:17;;;;;;;14.55;4.78;;;18.00;99.90;;;;;;5023084;28;20045;-44
2023/09/13 00:02:43;;;;;;;12.27;5.03;;;17.90;99.90;;;;;;5022671;28;20433;-43
2023/09/13 00:05:09;;;;;;;15.02;4.85;;;17.90;99.90;;;;;;5041253;28;20045;-44
2023/09/13 00:07:37;;;;;;;12.35;4.38;;;17.90;99.90;;;;;;5041069;28;20550;-46
2023/09/13 00:10:03;;;;;;;12.38;4.25;;;17.90;99.90;;;;;;5040576;28;20057;-44
2023/09/13 00:12:29;;;;;;;14.77;4.80;;;17.80;99.90;;;;;;5034810;28;20716;-44
2023/09/13 00:14:55;;;;;;;12.15;4.20;;;17.80;99.90;;;;;;5023235;28;20040;-45
2023/09/13 00:17:22;;;;;;;18.27;5.28;;;17.80;99.90;;;;;;5006552;28;20491;-45
2023/09/13 00:19:47;;;;;;;13.75;4.32;;;17.80;99.90;;;;;;5040584;28;20127;-47
2023/09/13 00:22:13;;;;;;;13.50;4.45;;;17.80;99.90;;;;;;5040347;28;20431;-43
2023/09/13 00:24:39;;;;;;;14.23;4.47;;;17.80;99.90;;;;;;5040740;28;20041;-46
2023/09/13 00:27:05;;;;;;;11.35;4.30;;;17.80;99.90;;;;;;5022613;28;20094;-47
2023/09/13 00:29:33;;;;;;;14.13;4.55;;;17.70;99.90;;;;;;5040565;28;20115;-48
2023/09/13 00:32:02;;;;;;;14.70;4.63;;;17.80;99.90;;;;;;5040846;28;20123;-45
2023/09/13 00:34:29;;;;;;;9.98;4.65;;;17.70;99.90;;;;;;5040831;28;20598;-48
2023/09/13 00:36:55;;;;;;;14.43;4.55;;;17.70;99.90;;;;;;5040838;28;20041;-45
2023/09/13 00:39:21;;;;;;;10.77;4.18;;;17.60;99.90;;;;;;5006282;28;20056;-44
2023/09/13 00:41:46;;;;;;;17.00;4.40;;;17.50;99.90;;;;;;5040342;28;20037;-44
2023/09/13 00:44:12;;;;;;;13.77;4.47;;;17.50;99.90;;;;;;5041183;28;20451;-45
2023/09/13 00:46:38;;;;;;;9.20;4.07;;;17.50;99.90;;;;;;5038913;28;20041;-44
2023/09/13 00:49:04;;;;;;;14.68;4.80;;;17.40;99.90;;;;;;5040996;28;20475;-46
2023/09/13 00:51:30;;;;;;;14.55;4.43;;;17.40;99.90;;;;;;5040011;28;20131;-44
2023/09/13 00:53:58;;;;;;;11.95;4.20;;;17.40;99.90;;;;;;5022879;28;20051;-45
2023/09/13 00:56:25;;;;;;;13.10;4.35;;;17.30;99.90;;;;;;5023172;28;20117;-45
2023/09/13 00:58:51;;;;;;;12.30;4.28;;;17.30;99.90;;;;;;5023049;28;20524;-45
2023/09/13 01:01:17;;;;;;;14.25;4.93;;;17.30;99.90;;;;;;5022036;28;20500;-45
2023/09/13 01:03:43;;;;;;;14.82;5.03;;;17.30;99.90;;;;;;5022962;28;20095;-45
2023/09/13 01:06:10;;;;;;;13.57;4.40;;;17.30;99.90;;;;;;5022802;28;20118;-44
2023/09/13 01:08:41;;;;;;;11.68;4.68;;;17.30;99.90;;;;;;5022664;28;20041;-45
2023/09/13 01:11:08;;;;;;;13.52;4.25;;;17.30;99.90;;;;;;5039719;28;20049;-44
2023/09/13 01:13:34;;;;;;;11.25;3.83;;;17.30;99.90;;;;;;5040716;28;20045;-44
2023/09/13 01:16:33;;;;;;;14.68;4.10;;;17.30;99.90;;;;;;5040120;28;20140;-45
2023/09/13 01:19:11;;;;;;;14.18;4.55;;;17.30;99.90;;;;;;5034498;28;20071;-48
2023/09/13 01:21:47;;;;;;;10.73;4.50;;;17.30;99.90;;;;;;5021601;28;20052;-44
2023/09/13 01:24:39;;;;;;;11.95;4.85;;;17.40;99.90;;;;;;5021392;28;20126;-45
2023/09/13 01:27:37;;;;;;;12.80;4.75;;;17.40;99.90;;;;;;5022310;28;20045;-43
2023/09/13 01:30:07;;;;;;;12.68;5.20;;;17.40;99.90;;;;;;5005555;28;20063;-45
2023/09/13 01:32:36;;;;;;;10.95;4.93;;;17.40;99.90;;;;;;5005389;28;20690;-45
2023/09/13 01:35:02;;;;;;;11.32;4.30;;;17.40;99.90;;;;;;5040145;28;20087;-46
2023/09/13 01:37:31;;;;;;;9.18;4.97;;;17.40;99.90;;;;;;5026896;28;20653;-44
2023/09/13 01:39:57;;;;;;;13.95;4.60;;;17.40;99.90;;;;;;5044267;28;20041;-45
2023/09/13 01:42:23;;;;;;;13.55;4.90;;;17.40;99.90;;;;;;5026123;28;20045;-44
2023/09/13 01:44:50;;;;;;;10.18;4.70;;;17.40;99.90;;;;;;5043890;28;20092;-44
2023/09/13 01:47:18;;;;;;;9.93;4.88;;;17.40;99.90;;;;;;5042205;28;20045;-45
2023/09/13 01:49:45;;;;;;;12.10;3.78;;;17.30;99.90;;;;;;5043281;28;20176;-44
2023/09/13 01:52:11;;;;;;;10.65;4.18;;;17.30;99.90;;;;;;5025238;28;20048;-44
2023/09/13 01:54:37;;;;;;;9.35;3.67;;;17.30;99.90;;;;;;5009400;28;20049;-44
2023/09/13 01:57:03;;;;;;;11.07;3.85;;;17.20;99.90;;;;;;5009554;28;20061;-43
2023/09/13 01:59:30;;;;;;;11.57;3.85;;;17.20;99.90;;;;;;5043627;28;20102;-44
2023/09/13 02:01:56;;;;;;;11.20;3.20;;;17.20;99.90;;;;;;5042540;28;20029;-43
2023/09/13 02:04:21;;;;;;;10.90;3.17;;;17.10;99.90;;;;;;5012999;28;20520;-43
2023/09/13 02:06:48;;;;;;;10.05;3.72;;;17.10;99.90;;;;;;5007507;28;20087;-45
2023/09/13 02:09:13;;;;;;;9.85;3.25;;;17.00;99.90;;;;;;5042768;28;20528;-45
2023/09/13 02:11:39;;;;;;;9.98;2.67;;;17.00;99.90;;;;;;5024056;28;20168;-47
2023/09/13 02:14:04;;;;;;;9.55;3.20;;;17.00;99.90;;;;;;5008723;28;20052;-44
2023/09/13 02:16:30;;;;;;;10.65;3.65;;;16.90;99.90;;;;;;5021836;28;20130;-45
2023/09/13 02:18:56;;;;;;;11.82;3.13;;;16.90;99.90;;;;;;5037597;28;20045;-45
2023/09/13 02:21:21;;;;;;;8.52;3.22;;;16.90;99.90;;;;;;5024560;28;20374;-45
2023/09/13 02:23:47;;;;;;;7.38;3.03;;;16.80;99.90;;;;;;5043890;28;20033;-44
2023/09/13 02:26:23;;;;;;;11.30;3.28;;;16.80;99.90;;;;;;5043511;28;20041;-44
2023/09/13 02:28:49;;;;;;;7.93;2.90;;;16.80;99.90;;;;;;5043037;28;20053;-47
2023/09/13 02:31:25;;;;;;;7.93;3.05;;;16.80;99.90;;;;;;5042561;28;20055;-46
2023/09/13 02:33:51;;;;;;;11.25;3.58;;;16.80;99.90;;;;;;5042961;28;20044;-45
2023/09/13 02:36:17;;;;;;;8.30;3.63;;;16.70;99.90;;;;;;5015097;28;20538;-44
2023/09/13 02:38:42;;;;;;;10.63;3.15;;;16.70;99.90;;;;;;5024653;28;20096;-44
2023/09/13 02:41:08;;;;;;;7.95;3.28;;;16.70;99.90;;;;;;5007703;28;20202;-44
2023/09/13 02:43:34;;;;;;;11.13;3.10;;;16.70;99.90;;;;;;5043122;28;20044;-45
2023/09/13 02:45:59;;;;;;;10.20;2.85;;;16.70;99.90;;;;;;5043252;28;20036;-44
2023/09/13 02:48:25;;;;;;;8.23;3.00;;;16.70;99.90;;;;;;5039939;28;20067;-44
2023/09/13 02:50:51;;;;;;;8.68;3.05;;;16.70;99.90;;;;;;5042006;28;20049;-44
2023/09/13 02:53:17;;;;;;;10.30;2.97;;;16.60;99.90;;;;;;5042202;28;20109;-47
2023/09/13 02:55:43;;;;;;;9.18;3.60;;;16.60;99.90;;;;;;5042428;28;20297;-44
2023/09/13 02:58:08;;;;;;;6.60;2.78;;;16.60;99.90;;;;;;5042258;28;20071;-44
2023/09/13 03:00:34;;;;;;;10.13;2.92;;;16.60;99.90;;;;;;5042604;28;20060;-45
2023/09/13 03:03:00;;;;;;;11.65;3.30;;;16.60;99.90;;;;;;5042199;28;20102;-45
2023/09/13 03:05:26;;;;;;;9.65;2.97;;;16.50;99.90;;;;;;5042601;28;20044;-44
2023/09/13 03:07:53;;;;;;;10.07;3.25;;;16.50;99.90;;;;;;5042120;28;20045;-45
2023/09/13 03:10:19;;;;;;;11.20;3.50;;;16.40;99.90;;;;;;5023213;28;20053;-45
2023/09/13 03:12:44;;;;;;;11.80;3.60;;;16.40;99.90;;;;;;5041742;28;20479;-44
2023/09/13 03:15:10;;;;;;;11.52;3.50;;;16.40;99.90;;;;;;5042119;28;20235;-45
2023/09/13 03:17:36;;;;;;;11.75;3.05;;;16.30;99.90;;;;;;5023670;28;20048;-46
2023/09/13 03:20:01;;;;;;;8.90;3.35;;;16.30;99.90;;;;;;5023302;28;20482;-45
2023/09/13 03:22:27;;;;;;;11.23;3.60;;;16.30;99.90;;;;;;5023378;28;20137;-45
2023/09/13 03:24:53;;;;;;;14.75;3.92;;;16.30;99.90;;;;;;5024097;28;20368;-44
2023/09/13 03:27:18;;;;;;;10.40;3.08;;;16.30;99.90;;;;;;5041822;28;20083;-46
2023/09/13 03:29:44;;;;;;;11.57;3.13;;;16.30;99.90;;;;;;5023941;28;20037;-44
2023/09/13 03:32:11;;;;;;;9.88;3.35;;;16.30;99.90;;;;;;5041501;28;20766;-47
2023/09/13 03:34:37;;;;;;;13.48;3.40;;;16.30;99.90;;;;;;5041865;28;20054;-45
2023/09/13 03:37:04;;;;;;;6.97;2.95;;;16.30;99.90;;;;;;5023729;28;20056;-46
2023/09/13 03:39:31;;;;;;;10.23;4.18;;;16.30;99.90;;;;;;5023089;28;20106;-45
2023/09/13 03:41:57;;;;;;;10.50;3.33;;;16.30;99.90;;;;;;5041500;28;20515;-46
2023/09/13 03:44:22;;;;;;;11.02;3.60;;;16.30;99.90;;;;;;5041956;28;20037;-46
2023/09/13 03:46:48;;;;;;;9.95;3.60;;;16.20;99.90;;;;;;5039102;28;20041;-47
2023/09/13 03:49:14;;;;;;;11.80;3.80;;;16.20;99.90;;;;;;5041103;28;20049;-45
2023/09/13 03:51:39;;;;;;;14.05;4.13;;;16.20;99.90;;;;;;5023077;28;20068;-46
2023/09/13 03:54:05;;;;;;;10.48;3.50;;;16.20;99.90;;;;;;5041345;28;20453;-46
2023/09/13 03:56:31;;;;;;;17.88;5.43;;;16.20;99.90;;;;;;5023322;28;20067;-46
2023/09/13 03:58:57;;;;;;;9.38;4.05;;;16.30;99.90;;;;;;5022610;28;20492;-45
2023/09/13 04:01:24;;;;;;;12.40;3.63;;;16.20;99.90;;;;;;5039368;28;20041;-44
2023/09/13 04:03:49;;;;;;;12.40;4.53;;;16.20;99.90;;;;;;5022754;28;20076;-45
2023/09/13 04:06:15;;;;;;;14.07;4.47;;;16.20;99.90;;;;;;5039718;28;20178;-43
2023/09/13 04:08:41;;;;;;;13.07;5.55;;;16.20;99.90;;;;;;5022466;28;20125;-45
2023/09/13 04:11:08;;;;;;;16.70;4.72;;;16.20;99.90;;;;;;5039536;28;20132;-44
2023/09/13 04:13:34;;;;;;;10.20;3.22;;;16.20;99.90;;;;;;5040992;28;20072;-45
2023/09/13 04:16:05;;;;;;;11.50;2.88;;;16.00;99.90;;;;;;5040864;28;20045;-46
2023/09/13 04:18:31;;;;;;;12.65;2.83;;;15.80;99.90;;;;;;5031413;28;20155;-50
2023/09/13 04:20:56;;;;;;;10.13;3.17;;;15.70;99.90;;;;;;5040834;28;20063;-48
2023/09/13 04:23:22;;;;;;;7.15;2.90;;;15.50;99.90;;;;;;5040853;28;20075;-49
2023/09/13 04:25:48;;;;;;;17.05;3.40;;;15.40;99.90;;;;;;5022214;28;20091;-52
2023/09/13 04:28:14;;;;;;;9.50;3.03;;;15.20;99.90;;;;;;5022720;28;20045;-48
2023/09/13 04:30:39;;;;;;;8.60;2.60;;;15.20;99.90;;;;;;5005661;28;20103;-51
2023/09/13 04:33:07;;;;;;;14.02;3.67;;;15.10;99.90;;;;;;5041316;28;20033;-51
2023/09/13 04:35:33;;;;;;;11.27;3.53;;;15.10;99.90;;;;;;5022806;28;20037;-47
2023/09/13 04:37:59;;;;;;;8.55;3.50;;;15.10;99.90;;;;;;5022975;28;20045;-49
2023/09/13 04:40:25;;;;;;;10.98;3.60;;;15.10;99.90;;;;;;5040493;28;20051;-48
2023/09/13 04:42:55;;;;;;;14.43;3.90;;;15.20;99.90;;;;;;5040564;28;20080;-51
2023/09/13 04:45:22;;;;;;;11.25;3.10;;;15.10;99.90;;;;;;5040201;28;20395;-47
2023/09/13 04:47:47;;;;;;;9.82;3.03;;;15.00;99.90;;;;;;5020469;28;20063;-48
2023/09/13 04:50:13;;;;;;;8.48;3.20;;;15.00;99.90;;;;;;5039945;28;20048;-50
2023/09/13 04:52:38;;;;;;;9.00;3.40;;;14.80;99.90;;;;;;5040045;28;20033;-48
2023/09/13 04:55:05;;;;;;;9.32;3.88;;;14.80;99.90;;;;;;5022209;28;20052;-47
2023/09/13 04:57:30;;;;;;;7.28;3.10;;;14.90;99.90;;;;;;5040810;28;20045;-49
2023/09/13 04:59:56;;;;;;;10.90;3.85;;;14.80;99.90;;;;;;5040105;28;20040;-47
2023/09/13 05:02:22;;;;;;;9.60;3.92;;;14.80;99.90;;;;;;5040435;28;20151;-48
2023/09/13 05:04:47;;;;;;;9.02;4.00;;;14.70;99.90;;;;;;5022595;28;20051;-50
2023/09/13 05:07:13;;;;;;;11.15;3.97;;;14.80;99.90;;;;;;5040582;28;20049;-47
2023/09/13 05:09:40;;;;;;;12.23;4.20;;;14.70;99.90;;;;;;5021800;28;20164;-47
2023/09/13 05:12:06;;;;;;;12.95;4.30;;;14.80;99.90;;;;;;5046018;28;20037;-47
2023/09/13 05:14:33;;;;;;;11.18;4.72;;;14.70;99.90;;;;;;5046994;28;20155;-49
2023/09/13 05:16:59;;;;;;;12.32;4.20;;;14.70;99.90;;;;;;5028692;28;20052;-48
2023/09/13 05:19:25;;;;;;;10.18;5.20;;;14.60;99.90;;;;;;4995537;28;20404;-47
2023/09/13 05:21:51;;;;;;;12.30;5.10;;;14.50;99.90;;;;;;5028019;28;20346;-48
2023/09/13 05:24:17;;;;;;;13.60;5.00;;;14.60;99.90;;;;;;5012201;28;20231;-46
2023/09/13 05:26:43;;;;;;;10.98;4.68;;;14.60;99.90;;;;;;5028719;28;20048;-51
2023/09/13 05:29:08;;;;;;;14.48;5.15;;;14.50;99.90;;;;;;5012035;28;20072;-48
2023/09/13 05:31:34;;;;;;;11.45;4.35;;;14.60;99.90;;;;;;5046275;28;20048;-49
2023/09/13 05:34:00;;;;;;;9.57;3.95;;;14.40;99.90;;;;;;5046449;28;20036;-46
2023/09/13 05:36:25;;;;;;;12.80;3.97;;;14.40;99.90;;;;;;5028783;28;20349;-47
2023/09/13 05:38:51;;;;;;;11.30;4.47;;;14.50;99.90;;;;;;5046625;28;20095;-45
2023/09/13 05:41:18;;;;;;;12.10;4.78;;;14.40;99.90;;;;;;5046319;28;20124;-46
2023/09/13 05:43:44;;;;;;;18.27;5.43;;;14.20;99.90;;;;;;5028918;28;20072;-46
2023/09/13 05:46:10;;;;;;;15.00;5.80;;;14.20;99.90;;;;;;5047005;28;20493;-46
2023/09/13 05:48:36;;;;;;;16.50;4.68;;;14.20;99.90;;;;;;5045469;28;20048;-50
2023/09/13 05:51:04;;;;;;;17.73;5.32;;;14.10;99.90;;;;;;5027832;28;20368;-50
2023/09/13 05:53:30;;;;;;;15.57;5.65;;;13.90;99.90;;;;;;5028263;28;20068;-45
2023/09/13 05:55:56;;;;;;;16.55;5.53;;;13.80;99.90;;;;;;5028549;28;20512;-47
2023/09/13 05:58:21;;;;;;;17.33;6.57;;;13.80;99.90;;;;;;5046769;28;20118;-47
2023/09/13 06:00:48;;;;;;;18.35;5.55;;;13.90;99.90;;;;;;5028044;28;20044;-46
2023/09/13 06:03:16;;;;;;;17.27;5.10;;;13.70;99.90;;;;;;5046579;28;20041;-48
2023/09/13 06:05:43;;;;;;;17.08;5.28;;;13.80;99.90;;;;;;5046392;28;20105;-46
2023/09/13 06:08:08;;;;;;;21.00;6.55;;;13.70;99.90;;;;;;5045444;28;20041;-47
2023/09/13 06:10:34;;;;;;;16.88;7.30;;;13.80;99.90;;;;;;5044569;28;20666;-46
2023/09/13 06:13:00;;;;;;;15.88;5.57;;;13.70;99.90;;;;;;5011088;28;20491;-47
2023/09/13 06:15:25;;;;;;;14.13;5.43;;;13.80;99.90;;;;;;5048333;28;20095;-46
2023/09/13 06:17:54;;;;;;;18.73;6.63;;;13.60;99.90;;;;;;5027992;28;20044;-47
2023/09/13 06:20:21;;;;;;;15.15;6.13;;;13.70;99.90;;;;;;5045529;28;20086;-46
2023/09/13 06:22:46;;;;;;;12.40;5.20;;;13.80;99.90;;;;;;5025216;28;20045;-50
2023/09/13 06:25:12;;;;;;;14.40;5.55;;;13.90;99.90;;;;;;5043292;28;20360;-50
2023/09/13 06:27:38;;;;;;;17.10;5.68;;;13.80;99.90;;;;;;5042617;28;20146;-48
2023/09/13 06:30:04;;;;;;;18.75;6.72;;;13.80;99.90;;;;;;5042022;28;20047;-48
2023/09/13 06:32:29;;;;;;;17.17;5.75;;;13.90;99.90;;;;;;5024154;28;20048;-48
2023/09/13 06:34:58;;;;;;;15.00;5.20;;;14.00;99.90;;;;;;5046179;28;20471;-45
2023/09/13 06:37:25;;;;;;;16.55;5.38;;;14.00;99.90;;;;;;5033313;28;20051;-49
2023/09/13 06:39:51;;;;;;;20.40;5.72;;;14.10;99.90;;;;;;5033016;28;20128;-49
2023/09/13 06:42:17;;;;;;;15.38;5.43;;;14.10;99.90;;;;;;5046060;28;20554;-48
2023/09/13 06:44:43;;;;;;;20.20;5.65;;;14.20;99.90;;;;;;5035356;28;20281;-47
2023/09/13 06:47:08;;;;;;;18.73;6.15;;;14.40;99.90;;;;;;5051254;28;20048;-45
2023/09/13 06:49:35;;;;;;;13.13;6.03;;;14.40;99.90;;;;;;5048334;28;20848;-48
2023/09/13 06:52:01;;;;;;;17.67;5.57;;;14.50;99.90;;;;;;5042120;28;20040;-47
2023/09/13 06:54:27;;;;;;;13.32;4.95;;;14.40;99.90;;;;;;5042309;28;20465;-45
2023/09/13 06:56:53;;;;;;;16.35;5.63;;;14.50;99.90;;;;;;5025014;28;20078;-48
2023/09/13 06:59:19;;;;;;;11.80;4.15;;;14.50;99.90;;;;;;5041989;28;20051;-49
2023/09/13 07:01:46;;;;;;;13.98;4.57;;;14.50;99.90;;;;;;5023121;28;20175;-47
2023/09/13 07:04:13;;;;;;;12.05;4.05;;;14.50;99.90;;;;;;5042046;28;20101;-49
2023/09/13 07:06:39;;;;;;;10.70;3.70;;;14.60;99.90;;;;;;4992829;28;20047;-50
2023/09/13 07:09:05;;;;;;;10.27;4.20;;;14.50;99.90;;;;;;4990615;28;20048;-47
2023/09/13 07:11:30;;;;;;;13.70;4.60;;;14.50;99.90;;;;;;5041753;28;20127;-46
2023/09/13 07:13:56;;;;;;;10.80;4.10;;;14.70;99.90;;;;;;5042392;28;20045;-50
2023/09/13 07:16:21;;;;;;;13.07;4.18;;;14.70;99.90;;;;;;5041910;28;20047;-48
2023/09/13 07:18:47;;;;;;;15.15;5.35;;;14.90;99.90;;;;;;5041709;28;20080;-50
2023/09/13 07:21:13;;;;;;;20.77;5.30;;;14.90;99.90;;;;;;5041570;28;20160;-50
2023/09/13 07:23:38;;;;;;;16.10;4.20;;;14.90;99.90;;;;;;5023219;28;20124;-47
2023/09/13 07:26:04;;;;;;;12.88;4.28;;;14.90;99.90;;;;;;5041607;28;20076;-47
2023/09/13 07:28:29;;;;;;;10.77;3.75;;;15.00;99.90;;;;;;5041516;28;20048;-50
2023/09/13 07:30:55;;;;;;;15.57;4.47;;;15.00;99.90;;;;;;5040607;28;20443;-47
2023/09/13 07:33:21;;;;;;;12.15;3.55;;;15.00;99.90;;;;;;5041214;28;21187;-49
2023/09/13 07:35:46;;;;;;;10.73;4.03;;;15.00;99.90;;;;;;5041400;28;20037;-47
2023/09/13 07:38:12;;;;;;;12.50;3.58;;;15.00;99.90;;;;;;5040045;28;20499;-48
2023/09/13 07:40:38;;;;;;;12.63;3.75;;;15.00;99.90;;;;;;5020635;28;20694;-47
2023/09/13 07:43:07;;;;;;;8.45;3.35;;;15.00;99.90;;;;;;5021796;28;20041;-46
2023/09/13 07:45:34;;;;;;;8.48;3.20;;;15.10;99.90;;;;;;5005029;28;20441;-48
2023/09/13 07:48:00;;;;;;;11.10;4.20;;;15.10;99.90;;;;;;5037520;28;20043;-47
2023/09/13 07:50:33;;;;;;;11.60;3.05;;;15.10;99.90;;;;;;5025978;28;20053;-50
2023/09/13 07:52:59;;;;;;;8.80;3.42;;;15.20;99.90;;;;;;5022709;28;20048;-46
2023/09/13 07:55:25;;;;;;;11.90;2.95;;;15.20;99.90;;;;;;5023002;28;20048;-47
2023/09/13 07:57:52;;;;;;;10.50;3.13;;;15.30;99.90;;;;;;5040933;28;20040;-48
2023/09/13 08:00:18;;;;;;;9.93;3.03;;;15.30;99.90;;;;;;5040159;28;20040;-46
2023/09/13 08:02:44;;;;;;;10.52;2.50;;;15.40;99.90;;;;;;5006308;28;20204;-47
2023/09/13 08:05:10;;;;;;;12.65;3.50;;;15.50;99.90;;;;;;5022990;28;20053;-48
2023/09/13 08:07:36;;;;;;;9.50;3.20;;;15.60;99.90;;;;;;5040748;28;20044;-50
2023/09/13 08:10:03;;;;;;;9.15;3.05;;;15.70;99.90;;;;;;5022509;28;20057;-50
2023/09/13 08:12:30;;;;;;;10.45;3.67;;;15.80;99.90;;;;;;5022898;28;20041;-47
2023/09/13 08:14:55;;;;;;;11.10;3.38;;;15.90;99.90;;;;;;5040576;28;20052;-49
2023/09/13 08:17:21;;;;;;;11.30;2.83;;;16.10;99.90;;;;;;5006282;28;20491;-49
2023/09/13 08:19:47;;;;;;;10.30;2.97;;;16.10;99.90;;;;;;5040044;28;20541;-48
2023/09/13 08:22:14;;;;;;;14.55;3.40;;;16.10;99.90;;;;;;5039970;28;20067;-47
2023/09/13 08:24:39;;;;;;;11.30;3.17;;;16.00;99.90;;;;;;5040635;28;20517;-50
2023/09/13 08:27:05;;;;;;;11.00;3.25;;;16.00;99.90;;;;;;5040281;28;20048;-50
2023/09/13 08:29:31;;;;;;;11.15;3.70;;;16.00;99.90;;;;;;5039876;28;20077;-47
2023/09/13 08:31:57;;;;;;;17.42;3.58;;;15.90;99.90;;;;;;5040424;28;20141;-48
2023/09/13 08:34:25;;;;;;;13.77;3.80;;;15.80;99.90;;;;;;5022690;28;20159;-49
2023/09/13 08:36:56;;;;;;;11.98;2.92;;;15.80;99.90;;;;;;5040704;28;20446;-46
2023/09/13 08:39:22;;;;;;;12.55;3.88;;;15.80;99.90;;;;;;5039768;28;20044;-47
2023/09/13 08:41:52;;;;;;;12.60;4.25;;;15.90;99.90;;;;;;5039746;28;20049;-47
2023/09/13 08:44:22;;;;;;;11.23;3.25;;;16.00;99.90;;;;;;5040313;28;20163;-50
2023/09/13 08:46:50;;;;;;;11.93;2.92;;;16.20;99.90;;;;;;5020445;28;20037;-48
2023/09/13 08:49:17;;;;;;;9.18;2.80;;;16.30;99.90;;;;;;5005437;28;20550;-49
2023/09/13 08:51:46;;;;;;;7.75;2.58;;;16.40;99.90;;;;;;5021631;28;20492;-45
2023/09/13 08:54:13;;;;;;;8.07;2.33;;;16.50;99.90;;;;;;5022524;28;20037;-48
2023/09/13 08:56:43;;;;;;;10.55;2.28;;;16.50;99.90;;;;;;5040308;28;20041;-48
2023/09/13 08:59:12;;;;;;;6.05;2.80;;;16.40;99.90;;;;;;5040107;28;20036;-45
2023/09/13 09:01:39;;;;;;;10.88;3.10;;;16.20;99.90;;;;;;5005438;28;20048;-45
2023/09/13 09:04:05;;;;;;;7.00;2.70;;;16.20;99.90;;;;;;5040162;28;20486;-45
2023/09/13 09:06:31;;;;;;;9.65;3.92;;;16.10;99.90;;;;;;5040398;28;20033;-48
2023/09/13 09:08:58;;;;;;;8.80;3.63;;;16.10;99.90;;;;;;5021517;28;20217;-46
2023/09/13 09:11:27;;;;;;;12.18;3.10;;;15.90;99.90;;;;;;5039215;28;20051;-46
2023/09/13 09:13:58;;;;;;;9.80;3.80;;;15.90;99.90;;;;;;5040120;28;20407;-50
2023/09/13 09:16:27;;;;;;;13.63;4.68;;;15.90;99.90;;;;;;5037572;28;20043;-47
2023/09/13 09:18:55;;;;;;;11.98;4.47;;;15.90;99.90;;;;;;4998965;28;20041;-45
2023/09/13 09:21:21;;;;;;;14.13;5.45;;;15.90;99.90;;;;;;5021767;28;20044;-46
2023/09/13 09:23:46;;;;;;;8.68;4.22;;;16.00;99.90;;;;;;5039808;28;20055;-46
2023/09/13 09:26:12;;;;;;;12.10;4.82;;;16.00;99.90;;;;;;5039921;28;20037;-46
2023/09/13 09:28:38;;;;;;;14.13;4.72;;;16.20;99.90;;;;;;5039614;28;20544;-46
2023/09/13 09:31:04;;;;;;;13.25;3.65;;;16.20;99.90;;;;;;5039644;28;20591;-47
2023/09/13 09:33:31;;;;;;;12.20;4.45;;;16.30;99.90;;;;;;5040003;28;20156;-48
2023/09/13 09:35:57;;;;;;;9.75;4.35;;;16.20;99.90;;;;;;5027807;28;20504;-45
2023/09/13 09:38:26;;;;;;;8.65;3.80;;;15.90;99.90;;;;;;5039812;28;20264;-47
2023/09/13 09:40:56;;;;;;;13.50;4.93;;;15.90;99.90;;;;;;5021297;28;20053;-48
2023/09/13 09:43:22;;;;;;;8.25;4.30;;;16.00;99.90;;;;;;5039748;28;20384;-47
2023/09/13 09:45:48;;;;;;;9.55;3.63;;;15.80;99.90;;;;;;5022201;28;20483;-47
2023/09/13 09:48:15;;;;;;;9.25;4.20;;;15.90;99.90;;;;;;5020079;28;20045;-50
2023/09/13 09:50:50;;;;;;;7.35;4.22;;;15.90;99.90;;;;;;5038666;28;20055;-50
2023/09/13 09:53:17;;;;;;;6.63;4.05;;;16.00;99.90;;;;;;5039411;28;20041;-46
2023/09/13 09:55:44;;;;;;;9.27;4.00;;;16.20;99.90;;;;;;5021642;28;20183;-47
2023/09/13 09:58:09;;;;;;;4.85;3.10;;;16.20;99.90;;;;;;5023284;28;20342;-47
2023/09/13 10:00:47;;;;;;;7.22;3.17;;;16.40;99.90;;;;;;5024238;28;20109;-48
2023/09/13 10:03:17;;;;;;;8.70;2.85;;;16.60;99.90;;;;;;5042513;28;20055;-49
2023/09/13 10:05:53;;;;;;;6.88;2.40;;;16.70;99.90;;;;;;5043243;28;20060;-45
2023/09/13 10:08:18;;;;;;;7.63;2.13;;;17.10;99.90;;;;;;5043062;28;20045;-46
2023/09/13 10:10:44;;;;;;;4.43;1.88;;;17.30;99.90;;;;;;4991206;28;20381;-47
2023/09/13 10:13:14;;;;;;;5.43;2.15;;;17.40;99.90;;;;;;5043291;28;20513;-45
2023/09/13 10:15:40;;;;;;;4.25;2.40;;;17.60;99.90;;;;;;5025052;28;20794;-47
2023/09/13 10:18:08;;;;;;;7.55;2.83;;;17.70;99.90;;;;;;5021671;28;20561;-46
2023/09/13 10:20:35;;;;;;;4.50;2.30;;;17.70;99.90;;;;;;5023975;28;20045;-46
2023/09/13 10:23:03;;;;;;;7.78;2.40;;;17.60;99.90;;;;;;5024902;28;20071;-45
2023/09/13 10:25:32;;;;;;;6.50;2.75;;;17.80;99.90;;;;;;5024945;28;20059;-46
2023/09/13 10:28:01;;;;;;;4.43;2.47;;;17.80;99.90;;;;;;5042713;28;20041;-46
2023/09/13 10:30:28;;;;;;;6.40;3.20;;;18.10;99.90;;;;;;5024029;28;20128;-46
2023/09/13 10:33:03;;;;;;;5.18;3.13;;;17.90;99.90;;;;;;5042807;28;20037;-46
2023/09/13 10:35:31;;;;;;;7.35;4.38;;;18.00;99.90;;;;;;5024651;28;20053;-48
2023/09/13 10:38:07;;;;;;;6.32;3.72;;;18.00;99.90;;;;;;5025102;28;20122;-45
2023/09/13 10:40:43;;;;;;;6.78;3.90;;;18.20;99.90;;;;;;5042186;28;20037;-48
2023/09/13 10:43:09;;;;;;;5.85;3.72;;;18.00;99.90;;;;;;5043131;28;20059;-46
2023/09/13 10:45:36;;;;;;;6.53;4.22;;;18.10;99.90;;;;;;5042443;28;20040;-50
2023/09/13 10:48:04;;;;;;;5.68;3.50;;;17.90;99.90;;;;;;5021886;28;20601;-45
2023/09/13 10:50:31;;;;;;;8.00;3.95;;;17.90;99.90;;;;;;5041512;28;20102;-48
2023/09/13 10:52:59;;;;;;;7.65;3.65;;;18.00;99.90;;;;;;5024377;28;20084;-47
2023/09/13 10:55:25;;;;;;;11.13;4.07;;;18.10;99.90;;;;;;5029998;28;20033;-48
2023/09/13 10:57:53;;;;;;;7.80;4.05;;;18.20;99.90;;;;;;5042540;28;20118;-48
2023/09/13 11:00:21;;;;;;;6.13;3.33;;;18.10;99.90;;;;;;5023385;28;20178;-47
2023/09/13 11:02:47;;;;;;;7.68;4.18;;;18.10;99.90;;;;;;5024020;28;20463;-45
2023/09/13 11:05:14;;;;;;;11.02;3.83;;;18.00;99.90;;;;;;5024371;28;20040;-47
2023/09/13 11:07:47;;;;;;;7.93;3.90;;;18.00;99.90;;;;;;5042249;28;20037;-50
2023/09/13 11:10:18;;;;;;;6.70;3.83;;;18.10;99.90;;;;;;5022533;28;20106;-47
2023/09/13 11:12:48;;;;;;;8.05;3.40;;;18.30;99.90;;;;;;5041840;28;20463;-46
2023/09/13 11:15:25;;;;;;;5.53;3.35;;;18.40;99.90;;;;;;5007371;28;20036;-45
2023/09/13 11:17:55;;;;;;;6.38;3.00;;;18.20;99.90;;;;;;5013639;28;20053;-46
2023/09/13 11:20:29;;;;;;;7.53;3.25;;;18.30;99.90;;;;;;5023021;28;20056;-47
2023/09/13 11:23:10;;;;;;;6.45;3.10;;;18.40;99.90;;;;;;5041637;28;20040;-49
2023/09/13 11:25:41;;;;;;;7.90;3.50;;;18.20;99.90;;;;;;5041746;28;20045;-48
2023/09/13 11:28:08;;;;;;;12.35;4.22;;;18.10;99.90;;;;;;5041515;28;20045;-46
2023/09/13 11:30:50;;;;;;;8.63;4.00;;;18.20;99.90;;;;;;5040691;28;20036;-49
2023/09/13 11:33:16;;;;;;;11.02;3.78;;;18.40;99.90;;;;;;5041878;28;20470;-46
2023/09/13 11:35:45;;;;;;;8.68;4.15;;;18.50;99.90;;;;;;5042482;28;20430;-46
2023/09/13 11:38:12;;;;;;;7.10;3.75;;;18.60;99.90;;;;;;5023831;28;20053;-47
2023/09/13 11:40:48;;;;;;;11.68;4.32;;;18.70;99.90;;;;;;5022711;28;20558;-46
2023/09/13 11:43:25;;;;;;;11.02;4.88;;;18.60;99.90;;;;;;5041597;28;20484;-45
2023/09/13 11:45:54;;;;;;;10.82;4.20;;;18.50;99.90;;;;;;5041839;28;20044;-47
2023/09/13 11:48:40;;;;;;;9.55;4.03;;;18.70;99.90;;;;;;5039088;28;20087;-48
2023/09/13 11:51:13;;;;;;;10.65;4.78;;;18.60;99.90;;;;;;5023235;28;20043;-46
2023/09/13 11:53:41;;;;;;;11.65;4.18;;;18.40;99.90;;;;;;5041099;28;20053;-49
2023/09/13 11:56:08;;;;;;;10.43;4.45;;;18.40;99.90;;;;;;5006924;28;20041;-46
2023/09/13 11:58:38;;;;;;;8.40;4.75;;;18.60;99.90;;;;;;5041106;28;20640;-47
2023/09/13 12:01:06;;;;;;;9.63;4.22;;;18.50;99.90;;;;;;5041469;28;20063;-46
2023/09/13 12:03:39;;;;;;;7.03;4.05;;;18.40;99.90;;;;;;5041494;28;20238;-48
2023/09/13 12:06:06;;;;;;;7.72;4.30;;;18.40;99.90;;;;;;5040825;28;20404;-47
2023/09/13 12:08:36;;;;;;;8.23;4.38;;;18.50;99.90;;;;;;5040742;28;20409;-46
2023/09/13 12:11:05;;;;;;;7.30;4.60;;;18.80;99.90;;;;;;5040443;28;20148;-47
2023/09/13 12:13:41;;;;;;;8.07;4.10;;;18.90;99.90;;;;;;5022910;28;20045;-44
2023/09/13 12:16:07;;;;;;;6.70;3.88;;;18.80;99.90;;;;;;5006695;28;20514;-44
2023/09/13 12:18:34;;;;;;;12.98;5.22;;;18.70;99.90;;;;;;5040552;28;20040;-44
2023/09/13 12:21:00;;;;;;;6.82;3.40;;;18.60;99.90;;;;;;5021031;28;20049;-45
2023/09/13 12:23:26;;;;;;;8.20;3.80;;;18.60;99.90;;;;;;5040668;28;20103;-46
2023/09/13 12:25:57;;;;;;;7.47;3.00;;;18.60;99.90;;;;;;5040870;28;20176;-43
2023/09/13 12:28:26;;;;;;;8.98;3.45;;;18.60;99.90;;;;;;5040578;28;20614;-44
2023/09/13 12:30:53;;;;;;;6.43;2.88;;;18.90;99.90;;;;;;5006062;28;20041;-46
2023/09/13 12:33:20;;;;;;;6.07;2.97;;;19.10;99.90;;;;;;5040696;28;20040;-46
2023/09/13 12:35:47;;;;;;;7.25;2.78;;;19.20;99.90;;;;;;5006174;28;20493;-44
2023/09/13 12:38:12;;;;;;;8.30;2.65;;;19.30;99.90;;;;;;5040455;28;20053;-44
2023/09/13 12:40:38;;;;;;;7.95;3.00;;;19.40;99.90;;;;;;5040278;28;20049;-46